Terminal Aerodrome Forecast
Issued by NWS

Home | Current Version | Previous Version | Text Only | Print | Product List | Glossary On
Versions: 1 2 3 4 5 6 7 8 9 10 11 12 13 14
000
FTUS45 KREV 251140
TAFCXP
TAF
KCXP 251140Z 2512/2612 VRB03KT P6SM -SHRA SCT030 BKN050
     FM251400 28007KT 5SM RA VCTS BKN030CB OVC060
     FM252200 27011KT P6SM VCSH SCT040 BKN070
     FM260400 30005KT P6SM SCT070 BKN120=

USA.gov is the U.S. government's official web portal to all federal, state and local government web resources and services.